createdAt,value
2018-04-29T00:01:49.532Z,15.40
2018-04-29T00:04:16.989Z,15.40
2018-04-29T00:06:44.449Z,15.30
2018-04-29T00:09:11.923Z,15.20
2018-04-29T00:11:39.377Z,15.20
2018-04-29T00:14:06.845Z,15.10
2018-04-29T00:16:34.301Z,15.00
2018-04-29T00:19:01.771Z,15.00
2018-04-29T00:21:30.002Z,14.90
2018-04-29T00:23:57.470Z,14.80
2018-04-29T00:26:24.927Z,14.90
2018-04-29T00:28:52.397Z,14.90
2018-04-29T00:31:19.943Z,14.80
2018-04-29T00:33:47.378Z,14.90
2018-04-29T00:36:14.847Z,14.90
2018-04-29T00:38:43.114Z,14.90
2018-04-29T00:41:10.554Z,14.90
2018-04-29T00:43:38.007Z,14.90
2018-04-29T00:46:05.482Z,14.90
2018-04-29T00:48:32.938Z,14.90
2018-04-29T00:51:00.408Z,14.90
2018-04-29T00:53:27.868Z,14.90
2018-04-29T00:55:55.333Z,14.90
2018-04-29T00:58:22.796Z,14.90
2018-04-29T01:00:50.266Z,14.90
2018-04-29T01:03:17.717Z,14.90
2018-04-29T01:05:45.182Z,14.90
2018-04-29T01:08:12.637Z,14.90
2018-04-29T01:10:40.105Z,14.90
2018-04-29T01:13:08.329Z,14.90
2018-04-29T01:15:35.794Z,14.80
2018-04-29T01:18:03.246Z,14.90
2018-04-29T01:20:30.726Z,14.90
2018-04-29T01:22:58.177Z,14.90
2018-04-29T01:25:25.637Z,14.90
2018-04-29T01:27:53.094Z,15.00
2018-04-29T01:30:20.562Z,15.00
2018-04-29T01:32:48.019Z,14.90
2018-04-29T01:35:15.485Z,15.00
2018-04-29T01:37:43.719Z,15.00
2018-04-29T01:40:11.181Z,15.00
2018-04-29T01:42:38.665Z,15.00
2018-04-29T01:45:06.127Z,15.00
2018-04-29T01:47:33.593Z,15.00
2018-04-29T01:50:01.825Z,15.00
2018-04-29T01:52:29.285Z,15.00
2018-04-29T01:54:56.747Z,14.90
2018-04-29T01:57:24.218Z,15.00
2018-04-29T01:59:51.677Z,14.90
2018-04-29T02:02:19.432Z,14.90
2018-04-29T02:04:46.886Z,14.90
2018-04-29T02:07:14.353Z,14.90
2018-04-29T02:09:41.814Z,14.90
2018-04-29T02:12:09.278Z,14.90
2018-04-29T02:14:36.737Z,14.90
2018-04-29T02:17:04.193Z,14.90
2018-04-29T02:19:31.662Z,14.90
2018-04-29T02:21:59.120Z,14.90
2018-04-29T02:24:26.572Z,14.90
2018-04-29T02:26:54.028Z,14.90
2018-04-29T02:29:21.485Z,14.90
2018-04-29T02:31:48.953Z,14.90
2018-04-29T02:34:16.409Z,14.80
2018-04-29T02:36:43.857Z,14.80
2018-04-29T02:39:11.317Z,14.80
2018-04-29T02:41:38.770Z,14.70
2018-04-29T02:44:06.993Z,14.80
2018-04-29T02:46:34.454Z,14.70
2018-04-29T02:49:01.926Z,14.80
2018-04-29T02:51:29.382Z,14.90
2018-04-29T02:53:56.835Z,14.80
2018-04-29T02:56:24.294Z,14.80
2018-04-29T02:58:51.741Z,14.70
2018-04-29T03:01:19.261Z,14.70
2018-04-29T03:03:46.700Z,14.80
2018-04-29T03:06:14.925Z,14.90
2018-04-29T03:08:42.382Z,14.80
2018-04-29T03:11:09.849Z,14.80
2018-04-29T03:13:37.317Z,14.80
2018-04-29T03:16:04.780Z,14.80
2018-04-29T03:18:32.242Z,14.80
2018-04-29T03:20:59.697Z,14.90
2018-04-29T03:23:27.153Z,14.90
2018-04-29T03:25:54.626Z,14.90
2018-04-29T03:28:22.846Z,14.70
2018-04-29T03:30:50.429Z,14.70
2018-04-29T03:33:17.947Z,14.70
2018-04-29T03:35:45.341Z,14.60
2018-04-29T03:38:12.798Z,14.50
2018-04-29T03:40:40.257Z,14.50
2018-04-29T03:43:07.721Z,14.40
2018-04-29T03:45:35.164Z,14.30
2018-04-29T03:48:02.625Z,14.20
2018-04-29T03:50:30.080Z,14.10
2018-04-29T03:52:57.549Z,14.00
2018-04-29T03:55:25.014Z,14.00
2018-04-29T03:58:04.292Z,14.00
2018-04-29T04:00:47.352Z,14.10
2018-04-29T04:03:26.553Z,14.20
2018-04-29T04:05:54.003Z,14.30
2018-04-29T04:08:21.465Z,14.30
2018-04-29T04:10:48.921Z,14.30
2018-04-29T04:13:16.382Z,14.20
2018-04-29T04:15:43.833Z,14.20
2018-04-29T04:18:11.301Z,14.10
2018-04-29T04:20:38.761Z,14.10
2018-04-29T04:23:06.274Z,14.00
2018-04-29T04:25:33.740Z,14.10
2018-04-29T04:28:01.258Z,14.20
2018-04-29T04:30:28.708Z,14.20
2018-04-29T04:32:56.165Z,14.20
2018-04-29T04:35:23.644Z,14.10
2018-04-29T04:37:51.097Z,14.10
2018-04-29T04:40:18.616Z,14.00
2018-04-29T04:42:46.789Z,14.10
2018-04-29T04:45:14.258Z,14.10
2018-04-29T04:47:41.730Z,14.10
2018-04-29T04:50:09.227Z,14.10
2018-04-29T04:52:36.672Z,14.10
2018-04-29T04:55:04.216Z,14.20
2018-04-29T04:57:31.669Z,14.10
2018-04-29T04:59:59.133Z,14.20
2018-04-29T05:02:26.593Z,14.20
2018-04-29T05:04:54.058Z,14.20
2018-04-29T05:07:21.546Z,14.20
2018-04-29T05:09:48.965Z,14.20
2018-04-29T05:12:17.193Z,14.20
2018-04-29T05:14:44.657Z,14.10
2018-04-29T05:17:12.111Z,14.10
2018-04-29T05:19:39.576Z,14.10
2018-04-29T05:22:07.107Z,14.10
2018-04-29T05:24:34.668Z,14.10
2018-04-29T05:27:02.189Z,14.10
2018-04-29T05:29:30.801Z,14.10
2018-04-29T05:31:58.309Z,14.10
2018-04-29T05:34:25.831Z,14.10
2018-04-29T05:36:53.313Z,14.20
2018-04-29T05:39:20.896Z,14.20
2018-04-29T05:41:48.408Z,14.30
2018-04-29T05:44:15.862Z,14.30
2018-04-29T05:46:43.332Z,14.40
2018-04-29T05:49:10.907Z,14.50
2018-04-29T05:51:38.424Z,14.60
2018-04-29T05:54:06.714Z,14.80
2018-04-29T05:56:34.208Z,14.80
2018-04-29T05:59:01.726Z,14.90
2018-04-29T06:01:29.237Z,15.00
2018-04-29T06:03:56.759Z,15.00
2018-04-29T06:06:24.410Z,15.00
2018-04-29T06:08:51.857Z,15.10
2018-04-29T06:11:19.444Z,15.10
2018-04-29T06:13:46.957Z,15.20
2018-04-29T06:16:14.477Z,15.20
2018-04-29T06:18:42.809Z,15.20
2018-04-29T06:21:10.320Z,15.30
2018-04-29T06:23:37.845Z,15.30
2018-04-29T06:26:05.479Z,15.40
2018-04-29T06:28:32.867Z,15.50
2018-04-29T06:31:00.421Z,15.50
2018-04-29T06:33:27.936Z,15.50
2018-04-29T06:35:55.396Z,15.40
2018-04-29T06:38:22.851Z,15.40
2018-04-29T06:40:50.399Z,15.40
2018-04-29T06:43:18.648Z,15.40
2018-04-29T06:45:46.183Z,15.40
2018-04-29T06:48:13.760Z,15.40
2018-04-29T06:50:41.321Z,15.40
2018-04-29T06:53:08.878Z,15.50
2018-04-29T06:55:36.372Z,15.50
2018-04-29T06:58:04.713Z,15.50
2018-04-29T07:00:32.336Z,15.50
2018-04-29T07:02:59.908Z,15.50
2018-04-29T07:05:27.374Z,15.50
2018-04-29T07:07:54.857Z,15.40
2018-04-29T07:10:22.409Z,15.50
2018-04-29T07:12:49.855Z,15.50
2018-04-29T07:15:17.339Z,15.60
2018-04-29T07:17:45.560Z,15.60
2018-04-29T07:20:13.039Z,15.60
2018-04-29T07:22:40.489Z,15.70
2018-04-29T07:25:07.957Z,15.80
2018-04-29T07:27:35.409Z,15.90
2018-04-29T07:30:02.981Z,15.90
2018-04-29T07:32:31.328Z,16.10
2018-04-29T07:34:58.800Z,16.10
2018-04-29T07:37:26.257Z,16.20
2018-04-29T07:39:53.809Z,16.20
2018-04-29T07:42:21.988Z,16.30
2018-04-29T07:44:49.437Z,16.30
2018-04-29T07:47:16.903Z,16.40
2018-04-29T07:49:44.361Z,16.50
2018-04-29T07:52:11.883Z,16.50
2018-04-29T07:54:39.279Z,16.50
2018-04-29T07:57:06.745Z,16.50
2018-04-29T07:59:34.219Z,16.50
2018-04-29T08:02:01.689Z,16.60
2018-04-29T08:04:29.919Z,16.80
2018-04-29T08:06:57.375Z,16.70
2018-04-29T08:09:24.852Z,16.80
2018-04-29T08:11:52.328Z,16.90
2018-04-29T08:14:20.024Z,16.90
2018-04-29T08:16:47.481Z,16.90
2018-04-29T08:19:14.935Z,17.00
2018-04-29T08:21:42.398Z,17.00
2018-04-29T08:24:09.853Z,17.20
2018-04-29T08:26:37.309Z,17.20
2018-04-29T08:29:04.765Z,17.30
2018-04-29T08:31:32.256Z,17.30
2018-04-29T08:33:59.709Z,17.30
2018-04-29T08:36:27.169Z,17.30
2018-04-29T08:38:54.634Z,17.40
2018-04-29T08:41:22.101Z,17.50
2018-04-29T08:43:49.568Z,17.50
2018-04-29T08:46:17.018Z,17.50
2018-04-29T08:48:44.477Z,17.50
2018-04-29T08:51:11.953Z,17.60
2018-04-29T08:53:39.418Z,17.70
2018-04-29T08:56:07.730Z,17.80
2018-04-29T08:58:35.139Z,17.80
2018-04-29T09:01:03.344Z,17.80
2018-04-29T09:03:30.800Z,17.80
2018-04-29T09:05:58.259Z,17.90
2018-04-29T09:08:25.914Z,17.90
2018-04-29T09:10:53.366Z,17.90
2018-04-29T09:13:20.853Z,17.90
2018-04-29T09:15:48.308Z,17.90
2018-04-29T09:18:15.768Z,18.00
2018-04-29T09:20:43.225Z,18.10
2018-04-29T09:23:10.684Z,18.30
2018-04-29T09:25:38.165Z,18.40
2018-04-29T09:28:05.614Z,18.40
2018-04-29T09:30:33.174Z,18.50
2018-04-29T09:33:00.632Z,18.50
2018-04-29T09:35:28.093Z,18.60
2018-04-29T09:37:55.602Z,18.70
2018-04-29T09:40:23.157Z,18.80
2018-04-29T09:42:50.617Z,18.80
2018-04-29T09:45:18.077Z,18.90
2018-04-29T09:47:45.529Z,19.00
2018-04-29T09:50:13.037Z,19.00
2018-04-29T09:52:40.493Z,19.10
2018-04-29T09:55:07.951Z,19.20
2018-04-29T09:57:35.408Z,19.20
2018-04-29T10:00:02.874Z,19.20
2018-04-29T10:02:31.114Z,19.30
2018-04-29T10:04:58.568Z,19.30
2018-04-29T10:07:26.049Z,19.40
2018-04-29T10:09:53.496Z,19.40
2018-04-29T10:12:21.773Z,19.50
2018-04-29T10:14:49.222Z,19.50
2018-04-29T10:17:16.688Z,19.60
2018-04-29T10:19:44.167Z,19.60
2018-04-29T10:22:11.624Z,19.70
2018-04-29T10:24:39.879Z,19.80
2018-04-29T10:27:07.334Z,19.80
2018-04-29T10:29:35.000Z,19.90
2018-04-29T10:32:02.461Z,19.90
2018-04-29T10:34:29.908Z,20.00
2018-04-29T10:36:57.377Z,20.00
2018-04-29T10:39:24.849Z,20.10
2018-04-29T10:41:53.086Z,20.30
2018-04-29T10:44:20.558Z,20.20
2018-04-29T10:46:48.050Z,20.30
2018-04-29T10:49:15.497Z,20.40
2018-04-29T10:51:42.948Z,20.40
2018-04-29T10:54:11.177Z,20.50
2018-04-29T10:56:38.698Z,20.40
2018-04-29T10:59:06.117Z,20.50
2018-04-29T11:01:34.648Z,20.60
2018-04-29T11:04:02.115Z,20.60
2018-04-29T11:06:29.759Z,20.70
2018-04-29T11:08:57.224Z,20.70
2018-04-29T11:11:24.769Z,20.80
2018-04-29T11:13:52.324Z,20.90
2018-04-29T11:16:20.560Z,21.00
2018-04-29T11:18:48.094Z,21.00
2018-04-29T11:21:15.673Z,21.10
2018-04-29T11:23:43.129Z,21.10
2018-04-29T11:26:10.607Z,21.10
2018-04-29T11:28:38.166Z,21.20
2018-04-29T11:31:05.546Z,21.30
2018-04-29T11:33:33.013Z,21.40
2018-04-29T11:36:00.501Z,21.50
2018-04-29T11:38:27.961Z,21.60
2018-04-29T11:40:55.441Z,21.70
2018-04-29T11:43:22.905Z,21.80
2018-04-29T11:45:50.419Z,21.90
2018-04-29T11:48:17.826Z,22.10
2018-04-29T11:50:45.290Z,22.20
2018-04-29T11:53:12.741Z,22.40
2018-04-29T11:55:40.193Z,22.50
2018-04-29T11:58:07.648Z,22.50
2018-04-29T12:00:35.121Z,22.60
2018-04-29T12:03:02.569Z,22.70
2018-04-29T12:05:30.062Z,22.80
2018-04-29T12:07:57.530Z,22.80
2018-04-29T12:10:25.001Z,22.90
2018-04-29T12:12:52.530Z,22.90
2018-04-29T12:15:19.933Z,22.90
2018-04-29T12:17:47.405Z,23.00
2018-04-29T12:20:14.864Z,23.00
2018-04-29T12:22:42.399Z,23.10
2018-04-29T12:25:09.860Z,23.10
2018-04-29T12:27:37.321Z,23.10
2018-04-29T12:30:04.789Z,23.10
2018-04-29T12:32:32.256Z,23.10
2018-04-29T12:34:59.713Z,23.10
2018-04-29T12:37:27.200Z,23.10
2018-04-29T12:39:54.664Z,23.10
2018-04-29T12:42:22.117Z,23.20
2018-04-29T12:44:49.578Z,23.30
2018-04-29T12:47:17.044Z,23.40
2018-04-29T12:49:44.506Z,23.40
2018-04-29T12:52:12.037Z,23.50
2018-04-29T12:54:39.437Z,23.50
2018-04-29T12:57:06.892Z,23.50
2018-04-29T12:59:34.348Z,23.60
2018-04-29T13:02:01.815Z,23.70
2018-04-29T13:04:29.264Z,23.80
2018-04-29T13:06:56.756Z,23.90
2018-04-29T13:09:24.210Z,23.90
2018-04-29T13:11:51.699Z,23.90
2018-04-29T13:14:19.405Z,23.90
2018-04-29T13:16:46.894Z,23.90
2018-04-29T13:19:14.349Z,23.90
2018-04-29T13:21:41.801Z,23.90
2018-04-29T13:24:09.280Z,23.90
2018-04-29T13:26:36.733Z,23.90
2018-04-29T13:29:04.307Z,23.90
2018-04-29T13:31:31.763Z,24.00
2018-04-29T13:33:59.239Z,23.90
2018-04-29T13:36:26.697Z,24.00
2018-04-29T13:38:54.236Z,24.10
2018-04-29T13:41:22.271Z,24.10
2018-04-29T13:43:49.743Z,24.20
2018-04-29T13:46:17.184Z,24.20
2018-04-29T13:48:44.661Z,24.30
2018-04-29T13:51:12.127Z,24.40
2018-04-29T13:53:39.596Z,24.50
2018-04-29T13:56:07.044Z,24.60
2018-04-29T13:58:34.508Z,24.80
2018-04-29T14:01:02.032Z,25.10
2018-04-29T14:03:29.540Z,25.50
2018-04-29T14:05:56.918Z,25.70
2018-04-29T14:08:24.391Z,25.90
2018-04-29T14:10:51.861Z,26.50
2018-04-29T14:13:19.319Z,27.10
2018-04-29T14:15:46.780Z,27.30
2018-04-29T14:18:14.232Z,27.50
2018-04-29T14:20:41.705Z,27.50
2018-04-29T14:23:09.149Z,27.60
2018-04-29T14:25:36.613Z,27.70
2018-04-29T14:28:04.064Z,27.80
2018-04-29T14:30:31.530Z,28.00
2018-04-29T14:32:58.981Z,28.20
2018-04-29T14:35:26.445Z,28.70
2018-04-29T14:37:53.898Z,28.80
2018-04-29T14:40:21.399Z,29.00
2018-04-29T14:42:48.850Z,29.70
2018-04-29T14:45:16.317Z,29.50
2018-04-29T14:47:43.775Z,28.90
2018-04-29T14:50:11.238Z,28.20
2018-04-29T14:52:38.697Z,27.90
2018-04-29T14:55:06.184Z,27.70
2018-04-29T14:57:34.414Z,27.60
2018-04-29T15:00:02.169Z,27.60
2018-04-29T15:02:30.343Z,28.40
2018-04-29T15:04:57.853Z,28.40
2018-04-29T15:07:26.125Z,27.60
2018-04-29T15:09:53.592Z,27.50
2018-04-29T15:12:21.105Z,27.20
2018-04-29T15:14:48.580Z,27.00
2018-04-29T15:17:16.637Z,27.10
2018-04-29T15:19:50.670Z,27.10
2018-04-29T15:22:18.154Z,27.00
2018-04-29T15:24:45.647Z,26.80
2018-04-29T15:27:13.126Z,26.60
2018-04-29T15:29:40.603Z,26.50
2018-04-29T15:32:08.164Z,26.40
2018-04-29T15:34:36.434Z,26.30
2018-04-29T15:37:03.991Z,26.30
2018-04-29T15:39:31.461Z,26.40
2018-04-29T15:41:59.730Z,26.70
2018-04-29T15:44:27.239Z,26.60
2018-04-29T15:46:54.722Z,26.50
2018-04-29T15:49:22.186Z,26.40
2018-04-29T15:51:49.664Z,26.20
2018-04-29T15:54:17.921Z,26.30
2018-04-29T15:56:45.433Z,26.30
2018-04-29T15:59:13.693Z,26.20
2018-04-29T16:01:41.239Z,26.10
2018-04-29T16:04:09.526Z,26.10
2018-04-29T16:06:37.775Z,26.10
2018-04-29T16:09:06.213Z,26.10
2018-04-29T16:11:33.758Z,26.10
2018-04-29T16:14:01.253Z,25.90
2018-04-29T16:16:28.776Z,25.90
2018-04-29T16:18:56.319Z,25.90
2018-04-29T16:21:23.825Z,26.00
2018-04-29T16:23:51.322Z,25.90
2018-04-29T16:26:18.797Z,25.90
2018-04-29T16:28:46.641Z,25.80
2018-04-29T16:31:14.117Z,25.70
2018-04-29T16:33:41.622Z,25.70
2018-04-29T16:36:09.103Z,25.60
2018-04-29T16:38:36.571Z,25.60
2018-04-29T16:41:04.827Z,25.50
2018-04-29T16:43:32.331Z,25.40
2018-04-29T16:45:59.828Z,25.40
2018-04-29T16:48:27.364Z,25.30
2018-04-29T16:50:54.881Z,25.30
2018-04-29T16:53:22.354Z,25.40
2018-04-29T16:55:49.867Z,25.30
2018-04-29T16:58:17.423Z,25.30
2018-04-29T17:00:45.005Z,25.20
2018-04-29T17:03:12.500Z,25.10
2018-04-29T17:05:40.008Z,25.10
2018-04-29T17:08:08.334Z,25.10
2018-04-29T17:10:35.881Z,25.10
2018-04-29T17:13:03.364Z,25.10
2018-04-29T17:15:30.901Z,24.90
2018-04-29T17:17:58.418Z,24.80
2018-04-29T17:20:25.902Z,24.70
2018-04-29T17:22:53.369Z,24.60
2018-04-29T17:25:21.849Z,24.50
2018-04-29T17:27:49.342Z,24.40
2018-04-29T17:30:16.797Z,24.20
2018-04-29T17:32:44.308Z,24.20
2018-04-29T17:35:12.569Z,24.00
2018-04-29T17:37:40.112Z,24.00
2018-04-29T17:40:07.618Z,23.90
2018-04-29T17:42:35.916Z,23.80
2018-04-29T17:45:03.462Z,23.80
2018-04-29T17:47:30.961Z,23.70
2018-04-29T17:49:58.546Z,23.70
2018-04-29T17:52:26.433Z,23.50
2018-04-29T17:54:55.449Z,23.50
2018-04-29T17:57:22.978Z,23.50
2018-04-29T17:59:50.511Z,23.40
2018-04-29T18:02:18.034Z,23.30
2018-04-29T18:04:45.499Z,23.30
2018-04-29T18:07:13.053Z,23.30
2018-04-29T18:09:40.576Z,23.20
2018-04-29T18:12:09.073Z,23.10
2018-04-29T18:14:36.673Z,23.10
2018-04-29T18:17:04.158Z,23.10
2018-04-29T18:19:31.728Z,23.10
2018-04-29T18:21:59.370Z,23.00
2018-04-29T18:24:26.870Z,23.00
2018-04-29T18:26:54.414Z,22.90
2018-04-29T18:29:22.105Z,22.90
2018-04-29T18:31:49.630Z,22.80
2018-04-29T18:34:17.133Z,22.80
2018-04-29T18:36:44.676Z,22.70
2018-04-29T18:39:12.183Z,22.60
2018-04-29T18:41:39.697Z,22.60
2018-04-29T18:44:07.231Z,22.50
2018-04-29T18:46:34.802Z,22.40
2018-04-29T18:49:02.336Z,22.30
2018-04-29T18:51:30.016Z,22.30
2018-04-29T18:53:57.436Z,22.20
2018-04-29T18:56:24.930Z,22.30
2018-04-29T18:58:52.424Z,22.20
2018-04-29T19:01:19.983Z,22.10
2018-04-29T19:03:47.426Z,22.10
2018-04-29T19:06:14.931Z,22.00
2018-04-29T19:08:42.490Z,21.90
2018-04-29T19:11:10.023Z,21.90
2018-04-29T19:13:37.560Z,21.90
2018-04-29T19:16:05.090Z,21.80
2018-04-29T19:18:33.065Z,21.80
2018-04-29T19:21:00.606Z,21.80
2018-04-29T19:23:28.115Z,21.80
2018-04-29T19:25:55.634Z,21.70
2018-04-29T19:28:24.709Z,21.70
2018-04-29T19:30:52.194Z,21.70
2018-04-29T19:33:19.677Z,21.70
2018-04-29T19:35:47.166Z,21.70
2018-04-29T19:38:14.698Z,21.60
2018-04-29T19:40:42.210Z,21.70
2018-04-29T19:43:10.486Z,21.60
2018-04-29T19:45:38.052Z,21.60
2018-04-29T19:48:06.304Z,21.50
2018-04-29T19:50:33.819Z,21.50
2018-04-29T19:53:01.329Z,21.50
2018-04-29T19:55:29.588Z,21.50
2018-04-29T19:57:57.133Z,21.40
2018-04-29T20:00:24.637Z,21.40
2018-04-29T20:02:52.153Z,21.40
2018-04-29T20:05:19.634Z,21.30
2018-04-29T20:07:47.121Z,21.30
2018-04-29T20:10:14.589Z,21.30
2018-04-29T20:12:42.101Z,21.20
2018-04-29T20:15:09.608Z,21.20
2018-04-29T20:17:37.082Z,21.20
2018-04-29T20:20:04.592Z,21.10
2018-04-29T20:22:32.870Z,21.00
2018-04-29T20:25:00.386Z,21.00
2018-04-29T20:27:27.877Z,21.00
2018-04-29T20:29:56.248Z,21.00
2018-04-29T20:32:35.527Z,20.90
2018-04-29T20:37:36.497Z,20.90
2018-04-29T20:40:03.997Z,20.80
2018-04-29T20:42:31.475Z,20.80
2018-04-29T20:44:58.958Z,20.80
2018-04-29T20:47:26.563Z,20.80
2018-04-29T20:49:54.119Z,20.70
2018-04-29T20:52:21.644Z,20.70
2018-04-29T20:54:49.122Z,20.60
2018-04-29T20:57:16.728Z,20.50
2018-04-29T20:59:44.296Z,20.50
2018-04-29T21:02:11.934Z,20.50
2018-04-29T21:04:39.521Z,20.40
2018-04-29T21:07:07.036Z,20.40
2018-04-29T21:09:34.576Z,20.40
2018-04-29T21:12:02.077Z,20.30
2018-04-29T21:14:30.357Z,20.20
2018-04-29T21:16:57.826Z,20.20
2018-04-29T21:19:25.300Z,20.20
2018-04-29T21:21:52.797Z,20.20
2018-04-29T21:24:20.283Z,20.20
2018-04-29T21:26:48.559Z,20.10
2018-04-29T21:29:16.070Z,20.10
2018-04-29T21:31:43.627Z,20.00
2018-04-29T21:34:11.111Z,20.00
2018-04-29T21:36:39.318Z,20.00
2018-04-29T21:39:06.832Z,19.90
2018-04-29T21:41:34.342Z,19.90
2018-04-29T21:44:01.803Z,19.90
2018-04-29T21:46:29.272Z,19.80
2018-04-29T21:48:56.787Z,19.70
2018-04-29T21:51:24.268Z,19.70
2018-04-29T21:53:51.790Z,19.70
2018-04-29T21:56:19.384Z,19.60
2018-04-29T21:58:46.820Z,19.60
2018-04-29T22:01:14.331Z,19.60
2018-04-29T22:03:41.817Z,19.50
2018-04-29T22:06:09.257Z,19.50
2018-04-29T22:08:36.728Z,19.40
2018-04-29T22:11:04.169Z,19.40
2018-04-29T22:13:31.640Z,19.40
2018-04-29T22:15:59.090Z,19.30
2018-04-29T22:18:26.546Z,19.30
2018-04-29T22:20:54.004Z,19.20
2018-04-29T22:23:21.462Z,19.20
2018-04-29T22:25:48.943Z,19.10
2018-04-29T22:28:16.419Z,19.10
2018-04-29T22:30:43.880Z,19.00
2018-04-29T22:33:11.332Z,19.00
2018-04-29T22:35:38.807Z,18.90
2018-04-29T22:38:06.247Z,18.90
2018-04-29T22:40:33.705Z,18.80
2018-04-29T22:43:01.170Z,18.80
2018-04-29T22:45:28.629Z,18.70
2018-04-29T22:47:56.085Z,18.70
2018-04-29T22:50:23.556Z,18.70
2018-04-29T22:52:51.017Z,18.60
2018-04-29T22:55:18.472Z,18.60
2018-04-29T22:57:45.925Z,18.50
2018-04-29T23:00:13.390Z,18.50
2018-04-29T23:02:40.857Z,18.50
2018-04-29T23:05:08.318Z,18.40
2018-04-29T23:07:35.781Z,18.40
2018-04-29T23:10:03.237Z,18.30
2018-04-29T23:12:30.697Z,18.30
2018-04-29T23:14:58.153Z,18.30
2018-04-29T23:17:25.620Z,18.20
2018-04-29T23:19:53.258Z,18.20
2018-04-29T23:22:20.795Z,18.20
2018-04-29T23:24:48.261Z,18.20
2018-04-29T23:27:15.740Z,18.20
2018-04-29T23:29:43.401Z,18.20
2018-04-29T23:32:10.877Z,18.10
2018-04-29T23:34:38.433Z,18.10
2018-04-29T23:37:05.898Z,18.10
2018-04-29T23:39:33.552Z,18.00
2018-04-29T23:42:01.017Z,18.00
2018-04-29T23:44:28.479Z,18.00
2018-04-29T23:46:56.028Z,18.00
2018-04-29T23:49:23.669Z,17.90
2018-04-29T23:51:51.120Z,17.90
2018-04-29T23:54:18.709Z,17.90
2018-04-29T23:56:46.165Z,17.90
2018-04-29T23:59:13.649Z,17.80
